Tiempo atmosférico en la estación meteorológica de Anaga, Santa Cruz de Tenerife (19 m.)



Fecha
DESCASC
Temp. máxima en grados centígrados (hora)
DESCASC
Temp. mínima en grados centígrados (hora)
DESCASC
Temp. media en grados centígrados
DESCASC
Racha de viento máxima en m/sg (hora)
DESCASC
Velocidad máxima media en intervalos de 10 minutos(hora)
DESCASC
Precipitaciones diarias en mm
DESCASC
Precipitaciones de 00:00 a 06:00 en mm
DESCASC
Precipitaciones de 06:00 a 12:00 en mm
DESCASC
Precipitaciones de 12:00 a 18:00 en mm
DESCASC
Precipitaciones de 18:00 a 24:00 en mm
DESCASC
25-01-2020 22 (14:30) 14.8 (06:50) 18.4 8.61 (11:00) 3.61 (02:40) 0 0 0 0 0
24-01-2020 20.9 (13:00) 13.1 (05:10) 17 5.83 (11:10) 3.06 (11:10) 0 0 0 0 0
23-01-2020 21.5 (14:10) 13.3 (23:59) 17.4 7.78 (10:10) 3.33 (10:00) 0 0 0 0 0
22-01-2020 20.4 (13:30) 11.2 (00:00) 15.8 7.78 (15:00) 3.06 (14:10) 0 0 0 0 0
21-01-2020 18.7 (14:00) 14.2 (00:00) 16.5 8.89 (14:10) 4.17 (13:50) 0 0 0 0 0
20-01-2020 20.8 (13:40) 15.6 (00:00) 18.2 10.28 (04:50) 3.89 (14:00) 0 0 0 0 0
19-01-2020 21.8 (15:50) 13.1 (00:00) 17.4 8.61 (14:50) 4.17 (14:50) 0 0 0 0 0
18-01-2020 21.8 (14:20) 13.2 (00:00) 17.5 5.83 (15:00) 2.5 (15:00) 0 0 0 0 0
17-01-2020 21.7 (14:50) 13 (00:00) 17.4 4.72 (09:00) 2.5 (09:00) 0 0 0 0 0
16-01-2020 21.7 (14:30) 12.9 (00:00) 17.3 5 (16:20) 2.22 (15:30) 0 0 0 0 0
15-01-2020 21.9 (14:50) 12.4 (00:00) 17.1 3.89 (02:00) 2.5 (02:00) 0 0 0 0 0
14-01-2020 21.6 (14:20) 13.1 (00:00) 17.4 11.94 (12:10) 6.39 (11:40) 0 0 0 0 0
13-01-2020 21.6 (14:40) 14.1 (00:00) 17.9 6.11 (17:10) 3.06 (15:40) 0 0 0 0 0
12-01-2020 21.3 (14:50) 15.3 (21:50) 18.3 8.61 (10:20) 3.33 (10:20) 0 0 0 0 0
11-01-2020 19.8 (13:30) 16.9 (00:00) 18.3 8.33 (19:00) 3.06 (12:00) 0 0 0 0 0
10-01-2020 20.6 (15:40) 17 (00:00) 18.8 7.22 (08:30) 2.78 (02:30) 0 0 0 0 0
09-01-2020 20.8 (15:30) 17.3 (00:00) 19 9.44 (15:50) 3.89 (21:20) 0 0 0 0 0
08-01-2020 22.2 (12:50) 15.1 (00:00) 18.7 8.33 (10:00) 3.61 (10:00) 0 0 0 0 0
07-01-2020 20.9 (15:50) 16.2 (00:00) 18.6 9.44 (10:10) 3.89 (12:10) 0 0 0 0 0
06-01-2020 21.1 (13:30) 16.4 (00:00) 18.8 10 (19:00) 3.89 (14:40) 0 0 0 0 0
05-01-2020 21.4 (14:50) 15.3 (00:00) 18.3 7.22 (04:30) 3.61 (13:10) 0 0 0 0 0
04-01-2020 21.2 (14:50) 16.4 (00:00) 18.8 6.67 (06:10) 3.33 (18:50) 0 0 0 0 0
03-01-2020 21 (13:10) 17.3 (00:00) 19.1 9.17 (07:40) 4.17 (06:50) 0 0 0 0 0
02-01-2020 21.7 (14:30) 13.7 (00:00) 17.7 7.78 (10:40) 3.33 (09:50) 0 0 0 0 0
01-01-2020 22.5 (13:00) 13 (00:00) 17.8 12.5 (14:30) 5.83 (14:00) 0 0 0 0 0
31-12-2019 21.9 (14:30) 12.9 (00:00) 17.4 5 (13:20) 2.78 (11:50) 0 0 0 0 0
30-12-2019 -- (--) -- (--) -- -- (--) -- (--) -- 0 0 -- 0
29-12-2019 23.6 (14:50) 16.1 (00:00) 19.9 5.83 (15:10) 3.06 (11:40) 0 0 0 0 0
28-12-2019 24.3 (15:20) 15.7 (00:00) 20 6.11 (12:10) 2.78 (12:30) 0 0 0 0 0

Gráficas

Temp. máximas Temp. mínimas Temp. medias Precipitaciones Rachas de viento máximas Velocidades máximas media en intervalos de 10 minutos

Datos horarios

Fecha y hora oficial Temperatura (ºC) Velocidad del viento (km/h) Dirección del viento Racha (km/h) Dirección de racha Precipitación (mm) Presión (hPa) Tendencia (hPa) Humedad (%)
2020-01-26 23:00:00 14.3 5 Norte 8 Norte 0 -- -- 76
2020-01-26 22:00:00 15 4 Norte 8 Norte 0 -- -- 75
2020-01-26 21:00:00 15.6 0 Calma 7 Noroeste 0 -- -- 73
2020-01-26 20:00:00 17 5 Norte 13 Norte 0 -- -- 67
2020-01-26 19:00:00 17.4 6 Norte 14 Norte 0 -- -- 66
2020-01-26 18:00:00 18.3 5 Norte 18 Sur 0 -- -- 63
2020-01-26 17:00:00 19.1 8 Sur 23 Sudeste 0 -- -- 60
2020-01-26 16:00:00 19.4 10 Sur 24 Sudeste 0 -- -- 63
2020-01-26 15:00:00 19.8 6 Sur 22 Sudeste 0 -- -- 61
2020-01-26 14:00:00 19.6 9 Sudeste 21 Sudeste 0 -- -- 61
2020-01-26 13:00:00 19.7 4 Nordeste 12 Este 0 -- -- 60
2020-01-26 12:00:00 19.3 7 Sur 25 Sur 0 -- -- 63
2020-01-26 11:00:00 19.7 8 Sur 19 Sudeste 0 -- -- 61
2020-01-26 10:00:00 16.8 0 Calma 5 Norte 0 -- -- 73
2020-01-26 09:00:00 15.2 0 Calma 6 Norte 0 -- -- 77
2020-01-26 08:00:00 14.2 0 Calma 6 Norte 0 -- -- 79
2020-01-26 07:00:00 15.6 0 Calma 15 Norte 0 -- -- 73
2020-01-26 06:00:00 15.9 4 Norte 13 Nordeste 0 -- -- 73
2020-01-26 05:00:00 15.3 5 Norte 12 Noroeste 0 -- -- 76
2020-01-26 04:00:00 14.4 0 Calma 5 Nordeste 0 -- -- 77
2020-01-26 03:00:00 15.3 3 Norte 6 Noroeste 0 -- -- 76
2020-01-26 02:00:00 15.5 0 Calma 6 Norte 0 -- -- 74
2020-01-26 01:00:00 15.5 0 Calma 6 Norte 0 -- -- 73
2020-01-26 00:00:00 16.5 0 Calma 12 Norte 0 -- -- 68
2020-01-25 23:00:00 17 4 Norte 13 Noroeste 0 -- -- 66
2020-01-25 22:00:00 17.5 6 Norte 18 Norte 0 -- -- 63
2020-01-25 21:00:00 17.8 5 Norte 16 Norte 0 -- -- 61
2020-01-25 20:00:00 17.8 5 Norte 15 Noroeste 0 -- -- 63
2020-01-25 19:00:00 17.9 6 Norte 16 Nordeste 0 -- -- 61
2020-01-25 18:00:00 18.7 7 Norte 23 Nordeste 0 -- -- 57
2020-01-25 17:00:00 19.5 8 Norte 23 Norte 0 -- -- 53
2020-01-25 16:00:00 20.1 12 Norte 24 Norte 0 -- -- 52
2020-01-25 15:00:00 21.4 5 Norte 23 Norte 0 -- -- 41
2020-01-25 14:00:00 21.8 11 Norte 29 Norte 0 -- -- 43
2020-01-25 13:00:00 21.2 9 Norte 23 Noroeste 0 -- -- 44
2020-01-25 12:00:00 20.8 8 Norte 24 Norte 0 -- -- 51
2020-01-25 11:00:00 20.6 11 Norte 31 Nordeste 0 -- -- 48
2020-01-25 10:00:00 19.6 4 Norte 14 Norte 0 -- -- 56
2020-01-25 09:00:00 16.5 3 Noroeste 8 Norte 0 -- -- 65
2020-01-25 08:00:00 15.2 3 Norte 9 Norte 0 -- -- 73
2020-01-25 07:00:00 15 3 Noroeste 12 Noroeste 0 -- -- 72
2020-01-25 06:00:00 16.3 2 Noroeste 10 Norte 0 -- -- 67
2020-01-25 05:00:00 16.6 5 Norte 19 Nordeste 0 -- -- 67
2020-01-25 04:00:00 16.4 6 Norte 19 Norte 0 -- -- 67
2020-01-25 03:00:00 16.7 10 Norte 23 Norte 0 -- -- 66
2020-01-25 02:00:00 16.3 8 Norte 17 Noroeste 0 -- -- 66
2020-01-25 01:00:00 16.1 5 Norte 17 Norte 0 -- -- 70
2020-01-25 00:00:00 17.1 6 Norte 13 Noroeste 0 -- -- 65
2020-01-24 23:00:00 17.6 3 Noroeste 14 Norte 0 -- -- 64
2020-01-24 22:00:00 17.1 5 Norte 12 Norte 0 -- -- 67
2020-01-24 21:00:00 17 3 Norte 12 Noroeste 0 -- -- 65
2020-01-24 20:00:00 17.7 7 Norte 19 Norte 0 -- -- 62
2020-01-24 19:00:00 18 6 Norte 15 Norte 0 -- -- 60
2020-01-24 18:00:00 19 5 Norte 14 Norte 0 -- -- 55
2020-01-24 17:00:00 19.2 5 Sudeste 9 Sudeste 0 -- -- 62
2020-01-24 16:00:00 19.6 4 Sur 11 Sur 0 -- -- 60
2020-01-24 15:00:00 20.2 6 Sudeste 15 Sur 0 -- -- 59
2020-01-24 14:00:00 19.7 6 Sur 16 Sudeste 0 -- -- 59
2020-01-24 13:00:00 20.9 6 Sur 17 Sudeste 0 -- -- 54
2020-01-24 12:00:00 19.4 9 Sudeste 21 Sur 0 -- -- 59
2020-01-24 11:00:00 19.7 9 Sudeste 21 Sudeste 0 -- -- 59
2020-01-24 10:00:00 19.2 5 Este 13 Sudeste 0 -- -- 60
2020-01-24 09:00:00 14.8 5 Norte 13 Norte 0 -- -- 72
2020-01-24 08:00:00 13.4 5 Norte 8 Noroeste 0 -- -- 78
2020-01-24 07:00:00 13.2 4 Norte 8 Norte 0 -- -- 73
2020-01-24 06:00:00 13.5 5 Norte 11 Oeste 0 -- -- 70
2020-01-24 05:00:00 13.2 5 Norte 10 Norte 0 -- -- 73
2020-01-24 04:00:00 13.5 5 Norte 11 Norte 0 -- -- 74
2020-01-24 03:00:00 13.6 3 Norte 8 Norte 0 -- -- 75
2020-01-24 02:00:00 13.4 5 Norte 9 Noroeste 0 -- -- 75
2020-01-24 01:00:00 13.2 5 Norte 10 Norte 0 -- -- 70
2020-01-24 00:00:00 13.3 4 Norte 8 Norte 0 -- -- 70
2020-01-23 23:00:00 13.4 4 Norte 9 Norte 0 -- -- 71
2020-01-23 22:00:00 14.6 5 Norte 9 Norte 0 -- -- 69
2020-01-23 21:00:00 16 4 Norte 10 Noroeste 0 -- -- 64
2020-01-23 20:00:00 16.4 4 Norte 6 Norte 0 -- -- 61
2020-01-23 19:00:00 18 0 Calma 13 Nordeste 0 -- -- 59
2020-01-23 18:00:00 18.7 4 Nordeste 17 Norte 0 -- -- 59
2020-01-23 17:00:00 18.8 7 Nordeste 21 Este 0 -- -- 63
2020-01-23 16:00:00 19.3 8 Norte 20 Norte 0 -- -- 60
2020-01-23 15:00:00 20.9 7 Nordeste 22 Norte 0 -- -- 53
2020-01-23 14:00:00 21.1 6 Sur 18 Este 0 -- -- 48
2020-01-23 13:00:00 20.8 6 Sudeste 20 Nordeste 0 -- -- 53
2020-01-23 12:00:00 20.9 9 Norte 22 Norte 0 -- -- 50
2020-01-23 11:00:00 20.1 7 Norte 28 Norte 0 -- -- 50
2020-01-23 10:00:00 18.8 12 Norte 24 Norte 0 -- -- 55
2020-01-23 09:00:00 16.8 7 Norte 16 Nordeste 0 -- -- 62
2020-01-23 08:00:00 15.1 2 Norte 14 Sur 0 -- -- 67
2020-01-23 07:00:00 16.2 6 Noroeste 16 Noroeste 0 -- -- 61
2020-01-23 06:00:00 16.4 5 Noroeste 14 Noroeste 0 -- -- 61
2020-01-23 05:00:00 15.9 3 Norte 12 Norte 0 -- -- 65
2020-01-23 04:00:00 16 5 Norte 13 Norte 0 -- -- 61
2020-01-23 03:00:00 14.5 5 Norte 13 Norte 0 -- -- 69
2020-01-23 02:00:00 14.9 4 Norte 9 Norte 0 -- -- 66
2020-01-23 01:00:00 15.6 4 Norte 9 Norte 0 -- -- 64
2020-01-23 00:00:00 15.5 4 Norte 14 Norte 0 -- -- 63
2020-01-22 23:00:00 14.4 6 Norte 13 Norte 0 -- -- 68
2020-01-22 22:00:00 14.7 3 Norte 8 Norte 0 -- -- 67
2020-01-22 21:00:00 15.9 4 Norte 7 Norte 0 -- -- 62
2020-01-22 20:00:00 17 4 Norte 11 Norte 0 -- -- 57
2020-01-22 19:00:00 17.7 3 Norte 13 Sudeste 0 -- -- 53
2020-01-22 18:00:00 18.4 6 Sudeste 16 Sudeste 0 -- -- 55
2020-01-22 17:00:00 18.9 6 Sudeste 17 Sur 0 -- -- 52
2020-01-22 16:00:00 19.6 6 Sudeste 18 Sudeste 0 -- -- 50
2020-01-22 15:00:00 19.5 6 Sudeste 28 Sur 0 -- -- 50
2020-01-22 14:00:00 20 9 Sudeste 21 Sur 0 -- -- 49
2020-01-22 13:00:00 20.2 9 Sur 16 Sudeste 0 -- -- 47
2020-01-22 12:00:00 19.7 7 Sur 15 Sur 0 -- -- 50
2020-01-22 11:00:00 18.5 5 Oeste 18 Norte 0 -- -- 52
2020-01-22 10:00:00 17.5 5 Norte 11 Norte 0 -- -- 55
2020-01-22 09:00:00 13.3 4 Norte 8 Norte 0 -- -- 71
2020-01-22 08:00:00 11.5 2 Norte 10 Norte 0 -- -- 79
2020-01-22 07:00:00 11.9 4 Noroeste 8 Nordeste 0 -- -- 78
2020-01-22 06:00:00 12 4 Norte 11 Norte 0 -- -- 79
2020-01-22 05:00:00 12 4 Norte 11 Norte 0 -- -- 79
2020-01-22 04:00:00 11.9 4 Norte 8 Norte 0 -- -- 79
2020-01-22 03:00:00 12.5 4 Norte 9 Norte 0 -- -- 76
2020-01-22 02:00:00 13.3 5 Norte 10 Norte 0 -- -- 73
2020-01-22 01:00:00 14.2 3 Norte 6 Sudeste 0 -- -- 69
2020-01-22 00:00:00 14.2 0 Calma 5 Norte 0 -- -- 69
2020-01-21 23:00:00 15.1 3 Norte 8 Noroeste 0 -- -- 68
2020-01-21 22:00:00 15.1 0 Calma 6 Sur 0 -- -- 68
2020-01-21 21:00:00 15.4 0 Calma 6 Norte 0 -- -- 66
2020-01-21 20:00:00 15.9 2 Sudeste 7 Sudoeste 0 -- -- 62
2020-01-21 19:00:00 16 4 Sudeste 7 Noroeste 0 -- -- 60
2020-01-21 18:00:00 16.3 3 Norte 17 Sur 0 -- -- 57
2020-01-21 17:00:00 15.8 6 Noroeste 21 Norte 0 -- -- 62
2020-01-21 16:00:00 17 6 Norte 21 Norte 0 -- -- 58
2020-01-21 15:00:00 18.2 5 Este 32 Nordeste 0 -- -- 58
2020-01-21 14:00:00 18.7 13 Norte 29 Nordeste 0 -- -- 53
2020-01-21 13:00:00 16.4 6 Norte 25 Nordeste 0 -- -- 64
2020-01-21 12:00:00 17.9 8 Norte 26 Noroeste 0 -- -- 56
2020-01-21 11:00:00 17 7 Norte 18 Norte 0 -- -- 58
2020-01-21 10:00:00 16.4 8 Norte 21 Nordeste 0 -- -- 58
2020-01-21 09:00:00 16.3 4 Noroeste 15 Noroeste 0 -- -- 59
2020-01-21 08:00:00 16.2 6 Norte 18 Norte 0 -- -- 56
2020-01-21 07:00:00 16.4 3 Norte 17 Noroeste 0 -- -- 55
2020-01-21 06:00:00 16.2 2 Sudoeste 19 Noroeste 0 -- -- 54
2020-01-21 05:00:00 16.5 5 Sur 27 Noroeste 0 -- -- 51
2020-01-21 04:00:00 16.5 5 Noroeste 22 Noroeste 0 -- -- 55
2020-01-21 03:00:00 16.4 4 Noroeste 15 Oeste 0 -- -- 54
2020-01-21 02:00:00 16.3 6 Norte 21 Noroeste 0 -- -- 57
2020-01-21 01:00:00 16.2 6 Norte 21 Noroeste 0 -- -- 61
2020-01-21 00:00:00 15.6 3 Noroeste 21 Sudeste 0 -- -- 76
2020-01-20 23:00:00 16.2 4 Norte 22 Norte 0 -- -- 71
2020-01-20 22:00:00 16.8 4 Sur 24 Noroeste 0 -- -- 63
2020-01-20 21:00:00 17.7 6 Noroeste 28 Noroeste 0 -- -- 57
2020-01-20 20:00:00 17.7 6 Nordeste 32 Norte 0 -- -- 54
2020-01-20 19:00:00 17.5 9 Norte 36 Norte 0 -- -- 59
2020-01-20 18:00:00 17.9 9 Norte 34 Nordeste 0 -- -- 55
2020-01-20 17:00:00 18.1 5 Norte 34 Noroeste 0 -- -- 61
2020-01-20 16:00:00 18.6 9 Norte 27 Nordeste 0 -- -- 58
2020-01-20 15:00:00 20.1 10 Norte 36 Noroeste 0 -- -- 52
2020-01-20 14:00:00 20.2 14 Norte 36 Noroeste 0 -- -- 53
2020-01-20 13:00:00 20.3 11 Norte 27 Norte 0 -- -- 49
2020-01-20 12:00:00 19.5 7 Norte 33 Noroeste 0 -- -- 56
2020-01-20 11:00:00 17.4 12 Norte 30 Nordeste 0 -- -- 63
2020-01-20 10:00:00 17.5 11 Norte 26 Norte 0 -- -- 64
2020-01-20 09:00:00 16.3 5 Norte 31 Norte 0 -- -- 66
2020-01-20 08:00:00 16.8 6 Norte 31 Noroeste 0 -- -- 60
2020-01-20 07:00:00 16.9 11 Norte 31 Noroeste 0 -- -- 62
2020-01-20 06:00:00 17.1 6 Norte 26 Noroeste 0 -- -- 61
2020-01-20 05:00:00 17.5 3 Nordeste 37 Nordeste 0 -- -- 65
2020-01-20 04:00:00 17.7 5 Nordeste 31 Norte 0 -- -- 67
2020-01-20 03:00:00 17.9 9 Norte 23 Nordeste 0 -- -- 70
2020-01-20 02:00:00 18.1 6 Norte 26 Noroeste 0 -- -- 68
2020-01-20 01:00:00 17.8 8 Norte 25 Norte 0 -- -- 78
2020-01-20 00:00:00 17.9 4 Norte 23 Nordeste 0 -- -- 83
2020-01-19 23:00:00 18.8 8 Norte 23 Noroeste 0 -- -- 71
2020-01-19 22:00:00 18.3 4 Norte 10 Norte 0 -- -- 70
2020-01-19 21:00:00 18.2 2 Norte 6 Sudoeste 0 -- -- 70
2020-01-19 20:00:00 18 0 Calma 16 Norte 0 -- -- 68
2020-01-19 19:00:00 18.6 2 Norte 18 Sur 0 -- -- 65
2020-01-19 18:00:00 19.2 10 Sur 24 Sudeste 0 -- -- 63
2020-01-19 17:00:00 20.2 10 Sur 23 Sudeste 0 -- -- 60
2020-01-19 16:00:00 21.7 9 Sur 25 Sudeste 0 -- -- 45
2020-01-19 15:00:00 21 13 Sudeste 31 Sudeste 0 -- -- 63
2020-01-19 14:00:00 21.6 8 Sudeste 25 Sudeste 0 -- -- 50
2020-01-19 13:00:00 21.5 9 Sur 18 Sur 0 -- -- 63
2020-01-19 12:00:00 21.1 7 Sur 16 Sur 0 -- -- 66
2020-01-19 11:00:00 20.5 6 Sur 14 Sur 0 -- -- 68
2020-01-19 10:00:00 17.7 4 Sudoeste 8 Norte 0 -- -- 80
2020-01-19 09:00:00 14.3 4 Norte 10 Norte 0 -- -- 73
2020-01-19 08:00:00 13.3 4 Norte 9 Norte 0 -- -- 71
2020-01-19 07:00:00 13.2 5 Norte 9 Norte 0 -- -- 68
2020-01-19 06:00:00 13.3 6 Norte 10 Norte 0 -- -- 62
2020-01-19 05:00:00 13.6 3 Norte 10 Norte 0 -- -- 68
2020-01-19 04:00:00 13.7 5 Norte 9 Nordeste 0 -- -- 70
2020-01-19 03:00:00 14.2 4 Norte 9 Norte 0 -- -- 69
2020-01-19 02:00:00 14.6 4 Norte 10 Norte 0 -- -- 65
2020-01-19 01:00:00 14.7 4 Norte 9 Norte 0 -- -- 58
2020-01-19 00:00:00 15.6 4 Norte 10 Noroeste 0 -- -- 50
2020-01-18 23:00:00 15.2 3 Norte 9 Norte 0 -- -- 67
2020-01-18 22:00:00 15.2 4 Norte 10 Noroeste 0 -- -- 62
2020-01-18 21:00:00 15.9 4 Norte 8 Norte 0 -- -- 50
2020-01-18 20:00:00 16 4 Norte 8 Norte 0 -- -- 48
2020-01-18 19:00:00 18 4 Noroeste 13 Sur 0 -- -- 50
2020-01-18 18:00:00 19 7 Sur 14 Sudoeste 0 -- -- 55
2020-01-18 17:00:00 19.6 6 Sur 19 Sudeste 0 -- -- 56
2020-01-18 16:00:00 21.3 8 Sudeste 21 Sudeste 0 -- -- 49
2020-01-18 15:00:00 21.5 9 Sudeste 21 Sudeste 0 -- -- 52
2020-01-18 14:00:00 21.5 6 Sur 17 Sudeste 0 -- -- 53
2020-01-18 13:00:00 21.6 6 Sudeste 14 Este 0 -- -- 51
2020-01-18 12:00:00 21.2 5 Sudeste 15 Sudeste 0 -- -- 59
2020-01-18 11:00:00 20.7 7 Sur 14 Sur 0 -- -- 63
2020-01-18 10:00:00 19.7 5 Sur 14 Sur 0 -- -- 68
2020-01-18 09:00:00 15.7 3 Sur 12 Norte 0 -- -- 83
2020-01-18 08:00:00 13.7 5 Norte 10 Nordeste 0 -- -- 82
2020-01-18 07:00:00 13.6 4 Norte 9 Norte 0 -- -- 80
2020-01-18 06:00:00 13.6 4 Norte 10 Norte 0 -- -- 82
2020-01-18 05:00:00 13.3 5 Norte 10 Norte 0 -- -- 78
2020-01-18 04:00:00 13.2 4 Norte 10 Norte 0 -- -- 70
2020-01-18 03:00:00 13.7 5 Norte 9 Noroeste 0 -- -- 69
2020-01-18 02:00:00 13.8 7 Norte 10 Norte 0 -- -- 68
2020-01-18 01:00:00 14.1 6 Norte 12 Norte 0 -- -- 70
2020-01-18 00:00:00 14.6 4 Norte 12 Norte 0 -- -- 67
2020-01-17 23:00:00 14.3 4 Norte 12 Norte 0 -- -- 63
2020-01-17 22:00:00 14.6 5 Norte 11 Norte 0 -- -- 62
2020-01-17 21:00:00 14.8 5 Norte 9 Norte 0 -- -- 59
2020-01-17 20:00:00 15.4 4 Norte 8 Norte 0 -- -- 55
2020-01-17 19:00:00 16.8 3 Norte 14 Sur 0 -- -- 54
2020-01-17 18:00:00 18.3 7 Sur 17 Sudeste 0 -- -- 60
2020-01-17 17:00:00 18.9 7 Sur 15 Sur 0 -- -- 59
2020-01-17 16:00:00 21.4 5 Sur 14 Sur 0 -- -- 51
2020-01-17 15:00:00 21.5 6 Sur 12 Sur 0 -- -- 50
2020-01-17 14:00:00 21.3 4 Norte 14 Sudeste 0 -- -- 52
2020-01-17 13:00:00 21.3 5 Sur 12 Sur 0 -- -- 52
2020-01-17 12:00:00 21 4 Sur 16 Sudeste 0 -- -- 49
2020-01-17 11:00:00 20.2 8 Sur 16 Sudeste 0 -- -- 52
2020-01-17 10:00:00 19.6 6 Sur 15 Sur 0 -- -- 50
2020-01-17 09:00:00 17.3 9 Sur 17 Sur 0 -- -- 58
2020-01-17 08:00:00 13.6 3 Norte 13 Norte 0 -- -- 74
2020-01-17 07:00:00 13.5 5 Norte 11 Norte 0 -- -- 73
2020-01-17 06:00:00 13.2 4 Norte 10 Norte 0 -- -- 75
2020-01-17 05:00:00 13.3 5 Norte 10 Norte 0 -- -- 76
2020-01-17 04:00:00 13.4 6 Norte 10 Noroeste 0 -- -- 74
2020-01-17 03:00:00 13.3 5 Norte 9 Norte 0 -- -- 65
2020-01-17 02:00:00 13.4 5 Norte 10 Norte 0 -- -- 52
2020-01-17 01:00:00 14.3 7 Norte 10 Norte 0 -- -- 43
2020-01-17 00:00:00 14.5 5 Norte 10 Noroeste 0 -- -- 41
2020-01-16 23:00:00 15.3 4 Norte 10 Nordeste 0 -- -- 38
2020-01-16 22:00:00 15.5 5 Norte 10 Norte 0 -- -- 40
2020-01-16 21:00:00 15.5 5 Norte 8 Norte 0 -- -- 53
2020-01-16 20:00:00 16.3 5 Norte 8 Norte 0 -- -- 60
2020-01-16 19:00:00 17.5 3 Norte 15 Sur 0 -- -- 56
2020-01-16 18:00:00 18.9 6 Sur 14 Sudeste 0 -- -- 63
2020-01-16 17:00:00 19.4 5 Sur 18 Sudeste 0 -- -- 60
2020-01-16 16:00:00 21.2 7 Sur 17 Sudeste 0 -- -- 56
2020-01-16 15:00:00 21.5 7 Sur 15 Sudeste 0 -- -- 54
2020-01-16 14:00:00 21.5 5 Sur 12 Sur 0 -- -- 52
2020-01-16 13:00:00 21.4 5 Sur 13 Sur 0 -- -- 53
2020-01-16 12:00:00 21 6 Sur 11 Sur 0 -- -- 52
2020-01-16 11:00:00 20.5 5 Sur 9 Sur 0 -- -- 53
2020-01-16 10:00:00 18.4 0 Calma 8 Norte 0 -- -- 56
2020-01-16 09:00:00 14.6 6 Norte 10 Noroeste 0 -- -- 67
2020-01-16 08:00:00 13.2 6 Norte 11 Norte 0 -- -- 61
2020-01-16 07:00:00 12.9 5 Norte 9 Norte 0 -- -- 54
2020-01-16 06:00:00 13.4 5 Norte 9 Norte 0 -- -- 50
2020-01-16 05:00:00 13.4 6 Norte 9 Norte 0 -- -- 50
2020-01-16 04:00:00 14.1 5 Norte 9 Norte 0 -- -- 48
2020-01-16 03:00:00 14 5 Norte 9 Norte 0 -- -- 46
2020-01-16 02:00:00 14.4 5 Norte 9 Norte 0 -- -- 45
2020-01-16 01:00:00 14.1 4 Norte 10 Norte 0 -- -- 48
2020-01-16 00:00:00 13.9 6 Norte 12 Norte 0 -- -- 58
2020-01-15 23:00:00 14.3 6 Norte 10 Nordeste 0 -- -- 67
2020-01-15 22:00:00 14.8 5 Norte 9 Norte 0 -- -- 66
2020-01-15 21:00:00 15.2 5 Norte 10 Noroeste 0 -- -- 68
2020-01-15 20:00:00 15.9 5 Norte 9 Norte 0 -- -- 63
2020-01-15 19:00:00 17.1 3 Norte 8 Norte 0 -- -- 56
2020-01-15 18:00:00 18.9 3 Sudeste 10 Sudeste 0 -- -- 48
2020-01-15 17:00:00 19.8 5 Sur 12 Sur 0 -- -- 44
2020-01-15 16:00:00 21.4 5 Sudeste 13 Sudeste 0 -- -- 41
2020-01-15 15:00:00 21.8 6 Sudeste 13 Sur 0 -- -- 43
2020-01-15 14:00:00 21.6 6 Sur 12 Sur 0 -- -- 45
2020-01-15 13:00:00 21.3 6 Sur 12 Sur 0 -- -- 47
2020-01-15 12:00:00 21 5 Sudeste 12 Sur 0 -- -- 46
2020-01-15 11:00:00 20.4 4 Sudeste 8 Sur 0 -- -- 45
2020-01-15 10:00:00 17.5 3 Norte 9 Norte 0 -- -- 44
2020-01-15 09:00:00 13.8 5 Norte 10 Norte 0 -- -- 45
2020-01-15 08:00:00 12.8 6 Norte 10 Norte 0 -- -- 43
2020-01-15 07:00:00 12.7 4 Norte 9 Norte 0 -- -- 43
2020-01-15 06:00:00 12.8 5 Norte 9 Norte 0 -- -- 44
2020-01-15 05:00:00 12.4 4 Norte 9 Noroeste 0 -- -- 48
2020-01-15 04:00:00 13.3 5 Norte 10 Norte 0 -- -- 47
2020-01-15 03:00:00 13.3 7 Norte 11 Norte 0 -- -- 59
2020-01-15 02:00:00 14 9 Norte 14 Norte 0 -- -- 65
2020-01-15 01:00:00 14.2 7 Norte 11 Norte 0 -- -- 58
2020-01-15 00:00:00 14.3 6 Norte 11 Norte 0 -- -- 63
2020-01-14 23:00:00 14.7 5 Norte 10 Norte 0 -- -- 64
2020-01-14 22:00:00 15.4 5 Norte 9 Norte 0 -- -- 67
2020-01-14 21:00:00 17.5 6 Norte 17 Este 0 -- -- 59
2020-01-14 20:00:00 18.2 6 Nordeste 14 Norte 0 -- -- 56
2020-01-14 19:00:00 18.1 2 Noroeste 19 Nordeste 0 -- -- 59
2020-01-14 18:00:00 18.9 9 Nordeste 23 Sudeste 0 -- -- 58
2020-01-14 17:00:00 19.4 8 Sudeste 22 Este 0 -- -- 61
2020-01-14 16:00:00 21.5 8 Nordeste 24 Norte 0 -- -- 48
2020-01-14 15:00:00 21.1 11 Norte 33 Nordeste 0 -- -- 50
2020-01-14 14:00:00 21.3 10 Este 39 Sudeste 0 -- -- 52
2020-01-14 13:00:00 20.8 18 Sudeste 43 Sudeste 0 -- -- 54
2020-01-14 12:00:00 20.6 21 Sudeste 40 Sudeste 0 -- -- 57
2020-01-14 11:00:00 20.6 18 Sur 36 Sudeste 0 -- -- 56
2020-01-14 10:00:00 20.1 17 Sudeste 32 Sudeste 0 -- -- 59
2020-01-14 09:00:00 17 4 Nordeste 11 Nordeste 0 -- -- 51
2020-01-14 08:00:00 13.9 7 Norte 13 Norte 0 -- -- 63
2020-01-14 07:00:00 13.1 5 Norte 8 Norte 0 -- -- 77
2020-01-14 06:00:00 13.4 6 Norte 10 Norte 0 -- -- 79
2020-01-14 05:00:00 13.4 5 Norte 8 Norte 0 -- -- 77
2020-01-14 04:00:00 13.9 5 Norte 11 Noroeste 0 -- -- 75
2020-01-14 03:00:00 13.5 6 Norte 12 Norte 0 -- -- 72
2020-01-14 02:00:00 13.7 4 Norte 10 Norte 0 -- -- 74
2020-01-14 01:00:00 14.4 6 Norte 11 Norte 0 -- -- 81
2020-01-14 00:00:00 14.7 6 Norte 9 Norte 0 -- -- 82
2020-01-13 23:00:00 15.1 5 Norte 10 Norte 0 -- -- 81
2020-01-13 22:00:00 15.9 5 Norte 11 Norte 0 -- -- 76
2020-01-13 21:00:00 18 3 Noroeste 15 Norte 0 -- -- 68
2020-01-13 20:00:00 18 3 Noroeste 8 Norte 0 -- -- 68
2020-01-13 19:00:00 18.7 5 Norte 15 Nordeste 0 -- -- 68
2020-01-13 18:00:00 19.4 7 Nordeste 22 Norte 0 -- -- 67
2020-01-13 17:00:00 20.1 8 Norte 20 Nordeste 0 -- -- 54
2020-01-13 16:00:00 21.3 7 Sudeste 21 Sur 0 -- -- 61
2020-01-13 15:00:00 21.5 8 Sudeste 15 Sudeste 0 -- -- 58
2020-01-13 14:00:00 21.4 8 Sur 13 Sudeste 0 -- -- 60
2020-01-13 13:00:00 21.2 6 Sur 14 Sudeste 0 -- -- 58
2020-01-13 12:00:00 21.3 6 Sur 13 Sur 0 -- -- 57
2020-01-13 11:00:00 20.7 5 Sur 13 Sudeste 0 -- -- 60
2020-01-13 10:00:00 19.5 6 Sur 12 Sudeste 0 -- -- 63
2020-01-13 09:00:00 16.2 3 Norte 10 Norte 0 -- -- 77
2020-01-13 08:00:00 15.4 5 Norte 11 Sudoeste 0 -- -- 78
2020-01-13 07:00:00 15.9 3 Norte 10 Norte 0 -- -- 76
2020-01-13 06:00:00 17 2 Norte 14 Sudeste 0 -- -- 72
2020-01-13 05:00:00 17.5 9 Sur 19 Sudeste 0 -- -- 70
2020-01-13 04:00:00 16.6 3 Oeste 15 Sur 0 -- -- 70
2020-01-13 03:00:00 17.3 6 Sur 18 Sur 0 -- -- 68
2020-01-13 02:00:00 14.1 0 Calma 10 Noroeste 0 -- -- 77
2020-01-13 01:00:00 15.6 3 Norte 12 Sudoeste 0 -- -- 73
2020-01-13 00:00:00 17.4 3 Sur 19 Sur 0 -- -- 66
2020-01-12 23:00:00 17 4 Sudoeste 22 Sur 0 -- -- 69
2020-01-12 22:00:00 15.3 4 Norte 10 Norte 0 -- -- 73
2020-01-12 21:00:00 15.9 5 Norte 15 Sur 0 -- -- 70
2020-01-12 20:00:00 17.7 6 Sudoeste 13 Sur 0 -- -- 62
2020-01-12 19:00:00 18 5 Sudoeste 17 Sur 0 -- -- 62
2020-01-12 18:00:00 18.2 8 Sur 23 Sur 0 -- -- 62
2020-01-12 17:00:00 18.8 11 Sur 24 Sudeste 0 -- -- 64
2020-01-12 16:00:00 19.1 10 Sudeste 26 Sudeste 0 -- -- 65
2020-01-12 15:00:00 21.3 7 Sur 19 Sur 0 -- -- 54
2020-01-12 14:00:00 21 6 Sur 18 Sudeste 0 -- -- 50
2020-01-12 13:00:00 19 8 Sur 20 Sudeste 0 -- -- 59
2020-01-12 12:00:00 19.7 6 Sur 28 Sur 0 -- -- 53
2020-01-12 11:00:00 19.2 5 Oeste 31 Sur 0 -- -- 55
2020-01-12 10:00:00 18.4 4 Sudoeste 12 Sudoeste 0 -- -- 60
2020-01-12 09:00:00 17.7 0 Calma 10 Sudoeste 0 -- -- 62
2020-01-12 08:00:00 17.7 3 Sudeste 16 Sur 0 -- -- 64
2020-01-12 07:00:00 17.7 3 Norte 15 Norte 0 -- -- 66
2020-01-12 06:00:00 17.7 5 Norte 20 Norte 0 -- -- 64
2020-01-12 05:00:00 17.7 8 Norte 17 Nordeste 0 -- -- 64
2020-01-12 04:00:00 17.6 4 Norte 19 Noroeste 0 -- -- 65
2020-01-12 03:00:00 17.7 5 Norte 21 Noroeste 0 -- -- 64
2020-01-12 02:00:00 17.8 8 Norte 22 Noroeste 0 -- -- 61
2020-01-12 01:00:00 17.7 9 Norte 26 Noroeste 0 -- -- 65
2020-01-12 00:00:00 17.6 4 Norte 11 Norte 0 -- -- 61
2020-01-11 23:00:00 17.5 4 Norte 21 Norte 0 -- -- 68
2020-01-11 22:00:00 17.7 6 Norte 18 Norte 0 -- -- 62
2020-01-11 21:00:00 17.2 4 Norte 20 Noroeste 0 -- -- 70
2020-01-11 20:00:00 17.8 7 Norte 24 Noroeste 0 -- -- 59
2020-01-11 19:00:00 17.9 9 Norte 30 Norte 0 -- -- 63
2020-01-11 18:00:00 18.2 8 Norte 22 Noroeste 0 -- -- 61
2020-01-11 17:00:00 18.3 8 Norte 23 Noroeste 0 -- -- 64
2020-01-11 16:00:00 18.8 8 Norte 23 Norte 0 -- -- 63
2020-01-11 15:00:00 19.5 6 Nordeste 20 Norte 0 -- -- 58
2020-01-11 14:00:00 19 8 Norte 25 Nordeste 0 -- -- 59
2020-01-11 13:00:00 19.4 4 Nordeste 20 Norte 0 -- -- 57
2020-01-11 12:00:00 19 11 Norte 25 Noroeste 0 -- -- 60
2020-01-11 11:00:00 18.8 8 Norte 18 Nordeste 0 -- -- 62
2020-01-11 10:00:00 18.4 6 Norte 18 Noroeste 0 -- -- 59
2020-01-11 09:00:00 17.7 8 Norte 24 Norte 0 -- -- 58
2020-01-11 08:00:00 17.3 3 Nordeste 17 Norte 0 -- -- 62
2020-01-11 07:00:00 17.1 5 Norte 16 Nordeste 0 -- -- 64
2020-01-11 06:00:00 17.4 5 Norte 22 Norte 0 -- -- 64
2020-01-11 05:00:00 17.3 4 Norte 30 Norte 0 -- -- 64
2020-01-11 04:00:00 17.7 6 Nordeste 20 Norte 0 -- -- 67
2020-01-11 03:00:00 18 6 Norte 22 Noroeste 0 -- -- 71
2020-01-11 02:00:00 18 5 Norte 19 Norte 0 -- -- 72
2020-01-11 01:00:00 17.7 6 Norte 15 Norte 0 -- -- 76
2020-01-11 00:00:00 17.6 3 Norte 15 Nordeste 0 -- -- 82
2020-01-10 23:00:00 17.5 4 Norte 9 Noroeste 0 -- -- 82
2020-01-10 22:00:00 17.2 2 Norte 6 Norte 0 -- -- 82
2020-01-10 21:00:00 17.1 0 Calma 6 Noroeste 0 -- -- 81
2020-01-10 20:00:00 18 4 Norte 9 Norte 0 -- -- 78
2020-01-10 19:00:00 18.5 4 Nordeste 15 Norte 0 -- -- 72
2020-01-10 18:00:00 18.9 5 Norte 18 Este 0 -- -- 71
2020-01-10 17:00:00 19.4 5 Norte 25 Norte 0 -- -- 65
2020-01-10 16:00:00 20.5 5 Norte 22 Noroeste 0 -- -- 64
2020-01-10 15:00:00 19.9 9 Norte 19 Norte 0 -- -- 69
2020-01-10 14:00:00 19.5 7 Norte 20 Noroeste 0 -- -- 74
2020-01-10 13:00:00 19.4 4 Norte 13 Noroeste 0 -- -- 73
2020-01-10 12:00:00 18.9 0 Calma 9 Noroeste 0 -- -- 81
2020-01-10 11:00:00 19.4 4 Norte 18 Norte 0 -- -- 72
2020-01-10 10:00:00 19.6 0 Calma 20 Norte 0 -- -- 71
2020-01-10 09:00:00 17.2 4 Norte 26 Oeste 0 -- -- 85
2020-01-10 08:00:00 17.2 3 Este 14 Norte 0 -- -- 85
2020-01-10 07:00:00 17.4 4 Norte 14 Norte 0 -- -- 81
2020-01-10 06:00:00 17.5 2 Norte 14 Norte 0 -- -- 79
2020-01-10 05:00:00 18.3 5 Norte 13 Noroeste 0 -- -- 74
2020-01-10 04:00:00 18 5 Norte 15 Noroeste 0 -- -- 72
2020-01-10 03:00:00 17.7 5 Norte 20 Norte 0 -- -- 73
2020-01-10 02:00:00 18.2 3 Nordeste 24 Noroeste 0 -- -- 73
2020-01-10 01:00:00 18.6 3 Norte 25 Norte 0 -- -- 64
2020-01-10 00:00:00 18.7 7 Norte 30 Norte 0 -- -- 60
2020-01-09 23:00:00 18.6 9 Norte 28 Noroeste 0 -- -- 57
2020-01-09 22:00:00 18.5 8 Norte 32 Norte 0 -- -- 59
2020-01-09 21:00:00 18.6 11 Norte 28 Noroeste 0 -- -- 61
2020-01-09 20:00:00 18.6 9 Norte 29 Norte 0 -- -- 59
2020-01-09 19:00:00 18.6 12 Norte 28 Norte 0 -- -- 61
2020-01-09 18:00:00 18.9 6 Norte 25 Norte 0 -- -- 61
2020-01-09 17:00:00 19.6 9 Norte 27 Nordeste 0 -- -- 58
2020-01-09 16:00:00 20.4 9 Nordeste 34 Norte 0 -- -- 53
2020-01-09 15:00:00 20.3 8 Norte 28 Nordeste 0 -- -- 53
2020-01-09 14:00:00 20.3 9 Norte 30 Norte 0 -- -- 54
2020-01-09 13:00:00 19.6 10 Norte 30 Norte 0 -- -- 56
2020-01-09 12:00:00 20 9 Norte 28 Noroeste 0 -- -- 53
2020-01-09 11:00:00 19.3 7 Norte 29 Nordeste 0 -- -- 56
2020-01-09 10:00:00 19.1 9 Norte 29 Noroeste 0 -- -- 56
2020-01-09 09:00:00 18 6 Norte 17 Norte 0 -- -- 62
2020-01-09 08:00:00 17.6 4 Norte 17 Noroeste 0 -- -- 67
2020-01-09 07:00:00 17.5 5 Norte 22 Norte 0 -- -- 63
2020-01-09 06:00:00 17.9 8 Norte 21 Noroeste 0 -- -- 63
2020-01-09 05:00:00 17.3 3 Norte 17 Norte 0 -- -- 65
2020-01-09 04:00:00 17.6 3 Norte 14 Norte 0 -- -- 63
2020-01-09 03:00:00 17.9 3 Noroeste 17 Norte 0 -- -- 64
2020-01-09 02:00:00 17.7 3 Norte 15 Norte 0 -- -- 62
2020-01-09 01:00:00 18 6 Norte 16 Norte 0 -- -- 61
2020-01-09 00:00:00 18 6 Norte 19 Norte 0 -- -- 63
2020-01-08 23:00:00 18 7 Norte 16 Norte 0 -- -- 63
2020-01-08 22:00:00 17.9 5 Norte 21 Noroeste 0 -- -- 62
2020-01-08 21:00:00 17.9 6 Norte 21 Norte 0 -- -- 61
2020-01-08 20:00:00 18.1 6 Norte 24 Norte 0 -- -- 59
2020-01-08 19:00:00 18.3 4 Norte 17 Nordeste 0 -- -- 60
2020-01-08 18:00:00 18.8 6 Norte 23 Noroeste 0 -- -- 56
2020-01-08 17:00:00 19.6 9 Norte 19 Noroeste 0 -- -- 55
2020-01-08 16:00:00 20.2 6 Norte 22 Norte 0 -- -- 54
2020-01-08 15:00:00 20.4 8 Norte 27 Norte 0 -- -- 53
2020-01-08 14:00:00 21.4 6 Nordeste 24 Noroeste 0 -- -- 51
2020-01-08 13:00:00 21.8 8 Norte 24 Noroeste 0 -- -- 50
2020-01-08 12:00:00 21.5 9 Norte 22 Norte 0 -- -- 51
2020-01-08 11:00:00 20.6 6 Sur 26 Sur 0 -- -- 53
2020-01-08 10:00:00 19.3 13 Sur 30 Sur 0 -- -- 57
2020-01-08 09:00:00 16.9 2 Norte 5 Nordeste 0 -- -- 74
2020-01-08 08:00:00 16.6 3 Norte 12 Noroeste 0 -- -- 74
2020-01-08 07:00:00 16.5 4 Norte 19 Sur 0 -- -- 78
2020-01-08 06:00:00 15.2 2 Norte 5 Nordeste 0 -- -- 77
2020-01-08 05:00:00 15.7 0 Calma 10 Nordeste 0 -- -- 71
2020-01-08 04:00:00 15.7 3 Norte 7 Norte 0 -- -- 72
2020-01-08 03:00:00 16.2 2 Norte 8 Norte 0 -- -- 70
2020-01-08 02:00:00 15.8 0 Calma 7 Norte 0 -- -- 71
2020-01-08 01:00:00 16.2 0 Calma 9 Norte 0 -- -- 68
2020-01-08 00:00:00 16.2 0 Calma 6 Norte 0 -- -- 69
2020-01-07 23:00:00 16.8 3 Norte 8 Noroeste 0 -- -- 67
2020-01-07 22:00:00 16.9 2 Nordeste 12 Norte 0 -- -- 65
2020-01-07 21:00:00 17.1 3 Norte 8 Norte 0 -- -- 64
2020-01-07 20:00:00 17.7 2 Norte 12 Norte 0 -- -- 61
2020-01-07 19:00:00 18 5 Norte 18 Sur 0 -- -- 61
2020-01-07 18:00:00 18.9 10 Sur 30 Sudeste 0 -- -- 56
2020-01-07 17:00:00 19.2 7 Sur 26 Sur 0 -- -- 58
2020-01-07 16:00:00 20.5 9 Sur 23 Sudeste 0 -- -- 56
2020-01-07 15:00:00 20.7 10 Sudeste 27 Sudeste 0 -- -- 56
2020-01-07 14:00:00 20.7 9 Sudeste 26 Sudeste 0 -- -- 52
2020-01-07 13:00:00 20.3 13 Sudeste 28 Sur 0 -- -- 55
2020-01-07 12:00:00 19.9 12 Sudeste 26 Sudeste 0 -- -- 55
2020-01-07 11:00:00 19.5 9 Sudeste 34 Sur 0 -- -- 57
2020-01-07 10:00:00 18.4 5 Sudoeste 21 Sur 0 -- -- 60
2020-01-07 09:00:00 18.1 5 Sudoeste 24 Sur 0 -- -- 61
2020-01-07 08:00:00 17.9 8 Sur 28 Sur 0 -- -- 65
2020-01-07 07:00:00 17.6 3 Nordeste 23 Sudeste 0 -- -- 64
2020-01-07 06:00:00 17 2 Nordeste 15 Norte 0 -- -- 65
2020-01-07 05:00:00 17.4 7 Nordeste 21 Norte 0 -- -- 60
2020-01-07 04:00:00 17.7 6 Norte 24 Norte 0 -- -- 60
2020-01-07 03:00:00 17.8 6 Norte 22 Noroeste 0 -- -- 60
2020-01-07 02:00:00 18.2 7 Norte 28 Norte 0 -- -- 66
2020-01-07 01:00:00 18.1 11 Norte 28 Noroeste 0 -- -- 63
2020-01-07 00:00:00 18.1 8 Norte 19 Nordeste 0 -- -- 65
2020-01-06 23:00:00 17.9 5 Norte 24 Norte 0 -- -- 60
2020-01-06 22:00:00 17.9 9 Norte 31 Noroeste 0 -- -- 66
2020-01-06 21:00:00 17.9 3 Norte 33 Norte 0 -- -- 67
2020-01-06 20:00:00 17.6 9 Norte 31 Norte 0 -- -- 74
2020-01-06 19:00:00 18.8 11 Norte 36 Noroeste 0 -- -- 61
2020-01-06 18:00:00 18.8 12 Norte 34 Nordeste 0 -- -- 61
2020-01-06 17:00:00 19.2 10 Norte 32 Norte 0 -- -- 61
2020-01-06 16:00:00 19.5 8 Norte 29 Norte 0 -- -- 57
2020-01-06 15:00:00 20.4 10 Norte 32 Norte 0 -- -- 56
2020-01-06 14:00:00 20.8 8 Norte 27 Noroeste 0 -- -- 54
2020-01-06 13:00:00 20.7 12 Norte 33 Norte 0 -- -- 53
2020-01-06 12:00:00 20.3 11 Norte 26 Noroeste 0 -- -- 54
2020-01-06 11:00:00 20.7 11 Norte 35 Norte 0 -- -- 50
2020-01-06 10:00:00 19.8 7 Norte 22 Nordeste 0 -- -- 53
2020-01-06 09:00:00 18.6 7 Norte 18 Nordeste 0 -- -- 59